createdAt,value
2023-03-12T00:01:22.980Z,6.90
2023-03-12T00:03:51.046Z,7.00
2023-03-12T00:06:19.936Z,7.00
2023-03-12T00:08:48.320Z,6.80
2023-03-12T00:11:18.474Z,6.70
2023-03-12T00:13:53.175Z,6.70
2023-03-12T00:16:22.267Z,6.70
2023-03-12T00:18:51.075Z,6.70
2023-03-12T00:21:20.171Z,6.70
2023-03-12T00:23:54.010Z,6.80
2023-03-12T00:26:32.251Z,6.90
2023-03-12T00:29:16.224Z,6.90
2023-03-12T00:31:52.150Z,7.00
2023-03-12T00:34:19.608Z,7.20
2023-03-12T00:36:46.953Z,7.30
2023-03-12T00:39:14.215Z,7.50
2023-03-12T00:41:43.477Z,7.60
2023-03-12T00:44:10.717Z,7.60
2023-03-12T00:46:38.198Z,7.70
2023-03-12T00:49:05.566Z,7.60
2023-03-12T00:51:33.230Z,7.50
2023-03-12T00:54:08.474Z,7.50
2023-03-12T00:56:35.774Z,7.50
2023-03-12T00:59:03.081Z,7.60
2023-03-12T01:01:30.441Z,7.70
2023-03-12T01:03:59.100Z,7.70
2023-03-12T01:06:26.829Z,7.70
2023-03-12T01:08:58.587Z,7.60
2023-03-12T01:11:25.923Z,7.60
2023-03-12T01:13:53.116Z,7.60
2023-03-12T01:16:20.547Z,7.70
2023-03-12T01:18:49.839Z,7.70
2023-03-12T01:21:17.099Z,7.80
2023-03-12T01:23:46.784Z,7.70
2023-03-12T01:26:14.132Z,7.40
2023-03-12T01:28:41.440Z,7.30
2023-03-12T01:31:15.157Z,7.30
2023-03-12T01:33:42.755Z,7.10
2023-03-12T01:36:36.191Z,7.20
2023-03-12T01:39:04.537Z,7.40
2023-03-12T01:41:33.785Z,7.40
2023-03-12T01:44:03.998Z,7.40
2023-03-12T01:46:34.372Z,7.10
2023-03-12T01:49:33.117Z,7.00
2023-03-12T01:52:07.322Z,7.10
2023-03-12T01:54:41.385Z,7.30
2023-03-12T01:57:18.176Z,7.30
2023-03-12T01:59:50.501Z,7.30
2023-03-12T02:02:23.813Z,7.40
2023-03-12T02:04:58.985Z,7.40
2023-03-12T02:07:26.364Z,7.20
2023-03-12T02:10:01.883Z,7.00
2023-03-12T02:12:32.925Z,7.00
2023-03-12T02:15:00.272Z,7.00
2023-03-12T02:17:27.651Z,7.00
2023-03-12T02:20:00.565Z,6.70
2023-03-12T02:23:13.715Z,6.70
2023-03-12T02:25:50.038Z,6.70
2023-03-12T02:28:24.070Z,6.80
2023-03-12T02:30:54.170Z,6.90
2023-03-12T02:33:25.638Z,7.00
2023-03-12T02:35:54.498Z,7.00
2023-03-12T02:38:49.041Z,7.10
2023-03-12T02:41:47.535Z,7.10
2023-03-12T02:44:25.545Z,7.20
2023-03-12T02:46:58.731Z,7.30
2023-03-12T02:49:29.202Z,7.40
2023-03-12T02:52:00.680Z,7.20
2023-03-12T02:54:30.223Z,7.10
2023-03-12T02:57:03.398Z,7.20
2023-03-12T02:59:33.370Z,7.40
2023-03-12T03:02:02.287Z,7.20
2023-03-12T03:04:31.736Z,7.00
2023-03-12T03:06:59.095Z,6.90
2023-03-12T03:09:31.157Z,6.80
2023-03-12T03:11:58.668Z,6.80
2023-03-12T03:14:25.961Z,6.90
2023-03-12T03:16:55.462Z,7.00
2023-03-12T03:19:25.173Z,7.00
2023-03-12T03:21:52.415Z,7.00
2023-03-12T03:24:19.686Z,7.00
2023-03-12T03:26:47.073Z,7.20
2023-03-12T03:29:17.627Z,7.30
2023-03-12T03:31:44.768Z,7.40
2023-03-12T03:34:12.800Z,7.40
2023-03-12T03:36:40.362Z,7.60
2023-03-12T03:39:18.953Z,7.60
2023-03-12T03:41:47.572Z,7.60
2023-03-12T03:44:17.300Z,7.70
2023-03-12T03:46:44.830Z,7.70
2023-03-12T03:49:12.400Z,7.60
2023-03-12T03:51:45.312Z,7.50
2023-03-12T03:54:12.993Z,7.40
2023-03-12T03:56:41.158Z,7.40
2023-03-12T03:59:08.560Z,7.40
2023-03-12T04:01:37.245Z,7.30
2023-03-12T04:04:05.874Z,7.30
2023-03-12T04:06:33.779Z,7.30
2023-03-12T04:09:03.714Z,7.10
2023-03-12T04:11:31.045Z,7.10
2023-03-12T04:13:58.667Z,6.90
2023-03-12T04:16:26.325Z,6.60
2023-03-12T04:18:53.794Z,6.80
2023-03-12T04:21:21.504Z,6.90
2023-03-12T04:23:49.016Z,6.90
2023-03-12T04:26:17.549Z,7.00
2023-03-12T04:28:45.143Z,7.00
2023-03-12T04:31:17.699Z,7.00
2023-03-12T04:33:45.531Z,7.00
2023-03-12T04:36:17.272Z,6.90
2023-03-12T04:38:57.913Z,6.80
2023-03-12T04:41:27.806Z,6.90
2023-03-12T04:43:57.688Z,6.90
2023-03-12T04:46:25.172Z,6.90
2023-03-12T04:48:52.442Z,6.90
2023-03-12T04:51:25.050Z,6.80
2023-03-12T04:53:52.431Z,6.80
2023-03-12T04:56:19.774Z,6.80
2023-03-12T04:58:48.020Z,6.70
2023-03-12T05:01:27.709Z,6.60
2023-03-12T05:03:58.136Z,6.50
2023-03-12T05:06:30.869Z,6.50
2023-03-12T05:08:58.452Z,6.60
2023-03-12T05:11:26.363Z,6.60
2023-03-12T05:13:57.935Z,6.70
2023-03-12T05:16:28.158Z,6.50
2023-03-12T05:18:56.040Z,6.50
2023-03-12T05:21:23.477Z,6.60
2023-03-12T05:23:53.341Z,6.80
2023-03-12T05:26:26.723Z,6.60
2023-03-12T05:28:54.645Z,6.50
2023-03-12T05:31:24.301Z,6.20
2023-03-12T05:33:53.031Z,6.30
2023-03-12T05:36:23.900Z,6.20
2023-03-12T05:38:51.404Z,6.00
2023-03-12T05:41:22.347Z,6.20
2023-03-12T05:43:50.187Z,6.40
2023-03-12T05:46:17.719Z,6.30
2023-03-12T05:48:50.349Z,6.20
2023-03-12T05:51:20.753Z,6.40
2023-03-12T05:53:48.713Z,6.50
2023-03-12T05:56:27.338Z,6.30
2023-03-12T05:58:54.747Z,6.20
2023-03-12T06:01:24.874Z,6.50
2023-03-12T06:03:58.588Z,6.60
2023-03-12T06:06:26.121Z,6.60
2023-03-12T06:08:58.990Z,6.60
2023-03-12T06:11:26.548Z,6.70
2023-03-12T06:13:53.822Z,6.70
2023-03-12T06:16:26.517Z,6.80
2023-03-12T06:18:59.274Z,6.60
2023-03-12T06:21:29.661Z,6.70
2023-03-12T06:23:57.891Z,6.60
2023-03-12T06:26:28.076Z,6.70
2023-03-12T06:28:57.669Z,6.90
2023-03-12T06:31:27.575Z,7.10
2023-03-12T06:33:57.124Z,7.10
2023-03-12T06:36:24.966Z,7.00
2023-03-12T06:38:57.203Z,6.90
2023-03-12T06:41:27.802Z,7.00
2023-03-12T06:44:02.033Z,7.10
2023-03-12T06:46:30.482Z,7.30
2023-03-12T06:48:58.034Z,7.20
2023-03-12T06:51:25.364Z,7.20
2023-03-12T06:53:52.802Z,7.30
2023-03-12T06:56:20.124Z,7.20
2023-03-12T06:58:47.495Z,7.10
2023-03-12T07:01:15.144Z,7.20
2023-03-12T07:03:43.462Z,7.20
2023-03-12T07:06:16.511Z,7.30
2023-03-12T07:08:44.590Z,7.40
2023-03-12T07:11:14.847Z,7.30
2023-03-12T07:13:54.278Z,7.30
2023-03-12T07:16:21.592Z,7.40
2023-03-12T07:18:54.368Z,7.50
2023-03-12T07:21:24.529Z,7.40
2023-03-12T07:24:25.553Z,7.30
2023-03-12T07:27:04.964Z,7.30
2023-03-12T07:29:32.280Z,7.20
2023-03-12T07:32:05.870Z,7.10
2023-03-12T07:34:33.098Z,6.90
2023-03-12T07:37:03.678Z,7.00
2023-03-12T07:39:39.903Z,7.10
2023-03-12T07:42:08.057Z,7.20
2023-03-12T07:44:57.692Z,7.30
2023-03-12T07:47:31.671Z,7.70
2023-03-12T07:50:02.341Z,7.90
2023-03-12T07:52:29.858Z,7.60
2023-03-12T07:55:04.702Z,7.70
2023-03-12T07:57:32.876Z,7.90
2023-03-12T08:00:00.211Z,8.00
2023-03-12T08:02:27.826Z,8.00
2023-03-12T08:05:04.122Z,7.90
2023-03-12T08:07:38.015Z,8.00
2023-03-12T08:10:08.689Z,7.90
2023-03-12T08:12:37.638Z,7.80
2023-03-12T08:15:23.421Z,8.00
2023-03-12T08:17:54.279Z,8.40
2023-03-12T08:20:21.800Z,8.70
2023-03-12T08:22:49.185Z,8.90
2023-03-12T08:25:19.495Z,9.10
2023-03-12T08:27:47.132Z,9.00
2023-03-12T08:30:14.479Z,9.10
2023-03-12T08:32:46.959Z,9.40
2023-03-12T08:35:14.188Z,9.30
2023-03-12T08:37:43.722Z,9.20
2023-03-12T08:40:14.615Z,9.20
2023-03-12T08:43:10.808Z,9.40
2023-03-12T08:45:38.159Z,9.30
2023-03-12T08:48:07.212Z,9.50
2023-03-12T08:50:37.350Z,9.70
2023-03-12T08:53:09.723Z,9.70
2023-03-12T08:55:37.109Z,9.80
2023-03-12T08:58:12.349Z,10.10
2023-03-12T09:00:43.008Z,10.00
2023-03-12T09:03:14.155Z,9.70
2023-03-12T09:05:42.578Z,9.90
2023-03-12T09:08:11.372Z,10.10
2023-03-12T09:10:41.756Z,10.40
2023-03-12T09:13:09.035Z,10.40
2023-03-12T09:15:36.495Z,10.30
2023-03-12T09:18:03.856Z,10.00
2023-03-12T09:20:31.402Z,9.80
2023-03-12T09:22:58.723Z,9.60
2023-03-12T09:25:26.218Z,9.70
2023-03-12T09:27:53.426Z,10.50
2023-03-12T09:30:22.076Z,10.70
2023-03-12T09:32:49.423Z,10.40
2023-03-12T09:35:17.114Z,10.30
2023-03-12T09:37:49.938Z,10.10
2023-03-12T09:40:22.016Z,10.30
2023-03-12T09:43:02.546Z,10.70
2023-03-12T09:45:39.302Z,11.20
2023-03-12T09:48:13.731Z,11.30
2023-03-12T09:50:55.268Z,11.40
2023-03-12T09:53:28.171Z,11.30
2023-03-12T09:55:58.498Z,10.80
2023-03-12T09:58:34.304Z,10.70
2023-03-12T10:01:10.681Z,11.00
2023-03-12T10:03:56.043Z,11.10
2023-03-12T10:06:56.327Z,11.10
2023-03-12T10:09:47.804Z,11.20
2023-03-12T10:12:22.462Z,11.50
2023-03-12T10:15:00.468Z,11.70
2023-03-12T10:17:42.023Z,12.00
2023-03-12T10:20:18.690Z,11.00
2023-03-12T10:23:11.183Z,10.90
2023-03-12T10:26:15.205Z,11.40
2023-03-12T10:28:49.234Z,11.10
2023-03-12T10:31:48.782Z,10.50
2023-03-12T10:34:31.301Z,10.70
2023-03-12T10:37:27.893Z,11.50
2023-03-12T10:39:56.094Z,11.30
2023-03-12T10:42:29.035Z,11.20
2023-03-12T10:45:21.298Z,10.20
2023-03-12T10:47:57.658Z,10.90
2023-03-12T10:50:40.377Z,11.00
2023-03-12T10:53:29.890Z,11.10
2023-03-12T10:56:09.443Z,12.00
2023-03-12T10:58:50.133Z,12.50
2023-03-12T11:01:27.437Z,12.80
2023-03-12T11:04:22.963Z,12.10
2023-03-12T11:07:15.336Z,12.30
2023-03-12T11:10:04.165Z,13.20
2023-03-12T11:12:37.779Z,12.30
2023-03-12T11:15:26.366Z,12.60
2023-03-12T11:18:22.892Z,13.00
2023-03-12T11:20:53.287Z,14.00
2023-03-12T11:23:31.799Z,16.30
2023-03-12T11:26:07.189Z,14.50
2023-03-12T11:28:44.186Z,13.30
2023-03-12T11:31:29.579Z,13.60
2023-03-12T11:34:05.085Z,13.70
2023-03-12T11:37:05.986Z,13.10
2023-03-12T11:39:48.297Z,12.60
2023-03-12T11:42:52.990Z,14.00
2023-03-12T11:45:58.016Z,14.30
2023-03-12T11:48:59.792Z,12.30
2023-03-12T11:51:50.724Z,12.60
2023-03-12T11:54:36.065Z,12.50
2023-03-12T11:57:32.294Z,12.40
2023-03-12T12:00:21.070Z,12.60
2023-03-12T12:03:08.041Z,13.90
2023-03-12T12:05:53.240Z,14.20
2023-03-12T12:08:50.780Z,14.40
2023-03-12T12:11:54.202Z,12.30
2023-03-12T12:14:45.730Z,12.30
2023-03-12T12:17:56.343Z,11.40
2023-03-12T12:20:52.748Z,11.60
2023-03-12T12:23:32.183Z,12.70
2023-03-12T12:26:22.449Z,13.70
2023-03-12T12:29:23.464Z,14.80
2023-03-12T12:32:02.417Z,17.30
2023-03-12T12:34:43.463Z,17.00
2023-03-12T12:37:35.215Z,18.40
2023-03-12T12:40:25.333Z,21.30
2023-03-12T12:43:15.018Z,21.80
2023-03-12T12:45:46.496Z,19.40
2023-03-12T12:48:24.087Z,20.60
2023-03-12T12:50:53.874Z,22.40
2023-03-12T12:53:49.847Z,23.10
2023-03-12T12:56:25.236Z,20.00
2023-03-12T12:59:26.627Z,17.20
2023-03-12T13:01:58.414Z,17.20
2023-03-12T13:04:38.758Z,19.80
2023-03-12T13:07:11.626Z,20.70
2023-03-12T13:09:44.589Z,17.80
2023-03-12T13:12:15.738Z,16.10
2023-03-12T13:14:44.697Z,15.50
2023-03-12T13:17:31.045Z,16.40
2023-03-12T13:20:01.644Z,16.80
2023-03-12T13:22:47.683Z,18.30
2023-03-12T13:25:27.140Z,18.80
2023-03-12T13:28:17.231Z,17.00
2023-03-12T13:30:48.937Z,20.30
2023-03-12T13:33:21.354Z,18.10
2023-03-12T13:36:17.997Z,17.20
2023-03-12T13:39:00.318Z,17.60
2023-03-12T13:41:36.962Z,16.50
2023-03-12T13:44:23.022Z,18.30
2023-03-12T13:47:09.235Z,21.20
2023-03-12T13:50:07.474Z,22.30
2023-03-12T13:53:17.650Z,23.50
2023-03-12T13:55:47.088Z,24.10
2023-03-12T13:58:23.789Z,23.20
2023-03-12T14:01:03.958Z,22.00
2023-03-12T14:03:40.482Z,22.50
2023-03-12T14:06:12.756Z,24.30
2023-03-12T14:09:05.172Z,22.60
2023-03-12T14:11:53.678Z,21.50
2023-03-12T14:14:48.582Z,19.70
2023-03-12T14:17:20.547Z,16.40
2023-03-12T14:19:56.633Z,16.80
2023-03-12T14:22:24.750Z,17.80
2023-03-12T14:24:57.585Z,18.40
2023-03-12T14:27:32.046Z,19.40
2023-03-12T14:30:21.081Z,21.90
2023-03-12T14:32:49.985Z,23.30
2023-03-12T14:35:40.220Z,24.10
2023-03-12T14:38:17.983Z,23.80
2023-03-12T14:41:07.161Z,25.10
2023-03-12T14:43:43.090Z,25.30
2023-03-12T14:46:23.101Z,23.90
2023-03-12T14:48:57.177Z,24.40
2023-03-12T14:51:26.867Z,25.30
2023-03-12T14:53:55.322Z,25.70
2023-03-12T14:56:35.356Z,24.50
2023-03-12T14:59:33.711Z,23.10
2023-03-12T15:02:23.015Z,23.20
2023-03-12T15:04:58.212Z,24.40
2023-03-12T15:07:42.557Z,21.80
2023-03-12T15:10:23.323Z,24.00
2023-03-12T15:12:52.461Z,24.80
2023-03-12T15:15:37.384Z,20.20
2023-03-12T15:18:13.944Z,19.70
2023-03-12T15:20:41.496Z,19.00
2023-03-12T15:23:13.456Z,17.40
2023-03-12T15:25:51.675Z,15.50
2023-03-12T15:28:22.745Z,15.50
2023-03-12T15:31:10.408Z,16.70
2023-03-12T15:33:39.092Z,16.90
2023-03-12T15:36:18.143Z,16.80
2023-03-12T15:38:52.266Z,16.60
2023-03-12T15:41:23.608Z,16.10
2023-03-12T15:44:01.197Z,16.20
2023-03-12T15:46:30.596Z,16.00
2023-03-12T15:49:03.006Z,16.10
2023-03-12T15:51:36.199Z,15.90
2023-03-12T15:54:31.179Z,15.70
2023-03-12T15:57:21.924Z,15.40
2023-03-12T16:00:12.674Z,15.30
2023-03-12T16:02:52.684Z,14.80
2023-03-12T16:05:22.283Z,14.70
2023-03-12T16:07:54.332Z,14.80
2023-03-12T16:10:59.927Z,14.00
2023-03-12T16:13:34.661Z,14.50
2023-03-12T16:16:20.570Z,14.60
2023-03-12T16:18:50.408Z,15.00
2023-03-12T16:21:21.088Z,14.80
2023-03-12T16:23:49.333Z,14.90
2023-03-12T16:26:26.584Z,14.20
2023-03-12T16:28:58.176Z,13.40
2023-03-12T16:31:57.715Z,12.70
2023-03-12T16:34:34.285Z,12.30
2023-03-12T16:37:14.984Z,11.90
2023-03-12T16:39:46.600Z,11.50
2023-03-12T16:42:17.259Z,11.50
2023-03-12T16:45:04.294Z,11.40
2023-03-12T16:47:32.091Z,11.50
2023-03-12T16:50:05.362Z,11.50
2023-03-12T16:52:36.516Z,11.50
2023-03-12T16:55:04.283Z,11.20
2023-03-12T16:57:37.929Z,11.00
2023-03-12T17:00:08.959Z,10.70
2023-03-12T17:02:37.377Z,10.50
2023-03-12T17:05:05.236Z,10.30
2023-03-12T17:07:32.958Z,10.10
2023-03-12T17:10:03.063Z,9.80
2023-03-12T17:12:41.167Z,9.80
2023-03-12T17:15:14.124Z,9.90
2023-03-12T17:17:41.940Z,9.80
2023-03-12T17:20:38.874Z,9.80
2023-03-12T17:23:08.623Z,9.90
2023-03-12T17:25:50.874Z,9.90
2023-03-12T17:28:33.915Z,9.70
2023-03-12T17:31:12.012Z,9.70
2023-03-12T17:33:51.309Z,9.60
2023-03-12T17:37:06.968Z,9.70
2023-03-12T17:40:31.385Z,9.70
2023-03-12T17:43:58.975Z,9.70
2023-03-12T17:46:32.572Z,9.80
2023-03-12T17:48:59.948Z,9.70
2023-03-12T17:51:46.816Z,9.60
2023-03-12T17:54:52.557Z,9.40
2023-03-12T18:00:54.540Z,9.30
2023-03-12T18:03:34.835Z,9.40
2023-03-12T18:06:49.872Z,9.30
2023-03-12T18:09:49.340Z,9.30
2023-03-12T18:12:33.003Z,9.20
2023-03-12T18:15:00.885Z,9.00
2023-03-12T18:17:38.418Z,9.00
2023-03-12T18:20:38.108Z,8.90
2023-03-12T18:23:38.965Z,8.80
2023-03-12T18:26:20.303Z,8.70
2023-03-12T18:29:01.840Z,8.80
2023-03-12T18:31:32.133Z,8.70
2023-03-12T18:34:08.462Z,8.70
2023-03-12T18:36:38.164Z,8.80
2023-03-12T18:39:06.654Z,8.80
2023-03-12T18:41:42.316Z,8.50
2023-03-12T18:44:18.503Z,8.40
2023-03-12T18:46:46.406Z,8.60
2023-03-12T18:49:14.059Z,8.50
2023-03-12T18:51:41.281Z,8.60
2023-03-12T18:54:08.683Z,8.40
2023-03-12T18:56:39.435Z,8.40
2023-03-12T18:59:13.635Z,8.30
2023-03-12T19:01:44.441Z,8.30
2023-03-12T19:04:34.391Z,8.10
2023-03-12T19:07:30.783Z,8.20
2023-03-12T19:12:54.704Z,8.10
2023-03-12T19:15:55.422Z,8.10
2023-03-12T19:18:45.740Z,8.00
2023-03-12T19:21:16.565Z,8.00
2023-03-12T19:23:56.375Z,8.00
2023-03-12T19:26:33.657Z,7.90
2023-03-12T19:29:04.322Z,8.00
2023-03-12T19:31:31.642Z,8.10
2023-03-12T19:33:59.461Z,8.20
2023-03-12T19:36:36.776Z,8.00
2023-03-12T19:39:11.958Z,7.90
2023-03-12T19:41:46.159Z,7.80
2023-03-12T19:44:30.172Z,7.40
2023-03-12T19:46:59.866Z,7.60
2023-03-12T19:49:28.508Z,7.90
2023-03-12T19:51:58.788Z,7.80
2023-03-12T19:54:54.689Z,8.10
2023-03-12T19:57:38.793Z,7.60
2023-03-12T20:00:10.973Z,7.40
2023-03-12T20:02:43.571Z,7.30
2023-03-12T20:05:28.185Z,7.50
2023-03-12T20:08:08.938Z,7.30
2023-03-12T20:10:42.024Z,7.30
2023-03-12T20:13:16.249Z,7.40
2023-03-12T20:15:50.046Z,7.40
2023-03-12T20:18:18.113Z,7.40
2023-03-12T20:20:47.289Z,7.60
2023-03-12T20:23:22.222Z,7.50
2023-03-12T20:25:50.443Z,7.50
2023-03-12T20:28:27.629Z,7.50
2023-03-12T20:31:11.463Z,7.60
2023-03-12T20:33:49.335Z,7.50
2023-03-12T20:36:19.644Z,7.30
2023-03-12T20:38:49.431Z,7.30
2023-03-12T20:41:17.195Z,7.20
2023-03-12T20:43:55.811Z,7.20
2023-03-12T20:49:53.492Z,7.30
2023-03-12T20:52:23.497Z,7.20
2023-03-12T20:54:50.909Z,7.30
2023-03-12T20:57:18.358Z,7.30
2023-03-12T20:59:46.249Z,7.10
2023-03-12T21:02:15.267Z,7.30
2023-03-12T21:04:44.420Z,7.40
2023-03-12T21:07:11.922Z,7.50
2023-03-12T21:09:39.110Z,7.10
2023-03-12T21:12:06.450Z,7.00
2023-03-12T21:14:33.590Z,6.80
2023-03-12T21:17:01.311Z,7.00
2023-03-12T21:19:31.726Z,7.10
2023-03-12T21:21:59.282Z,7.10
2023-03-12T21:24:26.417Z,7.10
2023-03-12T21:26:53.641Z,6.90
2023-03-12T21:29:20.902Z,6.70
2023-03-12T21:31:50.327Z,6.50
2023-03-12T21:34:17.475Z,6.70
2023-03-12T21:36:44.615Z,6.90
2023-03-12T21:39:12.389Z,6.90
2023-03-12T21:41:39.749Z,6.40
2023-03-12T21:44:09.242Z,6.30
2023-03-12T21:46:36.842Z,6.20
2023-03-12T21:49:04.380Z,6.30
2023-03-12T21:51:31.744Z,6.30
2023-03-12T21:54:07.521Z,6.60
2023-03-12T21:56:34.821Z,6.60
2023-03-12T21:59:10.857Z,6.70
2023-03-12T22:01:39.614Z,6.50
2023-03-12T22:04:10.587Z,6.60
2023-03-12T22:06:45.725Z,6.30
2023-03-12T22:09:16.915Z,6.60
2023-03-12T22:11:46.630Z,6.30
2023-03-12T22:14:20.389Z,6.40
2023-03-12T22:16:47.643Z,6.30
2023-03-12T22:19:18.474Z,6.20
2023-03-12T22:21:45.601Z,6.10
2023-03-12T22:24:12.900Z,6.00
2023-03-12T22:26:40.167Z,6.00
2023-03-12T22:29:12.765Z,6.00
2023-03-12T22:31:40.030Z,6.00
2023-03-12T22:34:14.077Z,6.00
2023-03-12T22:36:42.123Z,6.10
2023-03-12T22:39:09.396Z,6.00
2023-03-12T22:41:39.308Z,5.80
2023-03-12T22:44:12.452Z,5.60
2023-03-12T22:46:44.339Z,5.40
2023-03-12T22:49:11.680Z,5.50
2023-03-12T22:51:39.244Z,5.50
2023-03-12T22:54:08.753Z,5.40
2023-03-12T22:56:36.165Z,5.50
2023-03-12T22:59:03.893Z,5.50
2023-03-12T23:01:34.024Z,5.40
2023-03-12T23:04:01.610Z,5.50
2023-03-12T23:06:31.076Z,5.30
2023-03-12T23:09:01.053Z,5.50
2023-03-12T23:11:29.820Z,5.70
2023-03-12T23:14:00.206Z,5.50
2023-03-12T23:16:27.704Z,5.60
2023-03-12T23:18:56.440Z,5.40
2023-03-12T23:21:28.424Z,5.10
2023-03-12T23:24:00.283Z,4.80
2023-03-12T23:26:29.111Z,4.80
2023-03-12T23:28:57.894Z,4.80
2023-03-12T23:31:29.970Z,4.80
2023-03-12T23:33:59.314Z,4.70
2023-03-12T23:36:27.426Z,4.70
2023-03-12T23:38:55.178Z,5.10
2023-03-12T23:41:29.579Z,5.30
2023-03-12T23:43:58.571Z,5.30
2023-03-12T23:46:34.909Z,5.40
2023-03-12T23:49:02.295Z,5.20
2023-03-12T23:51:32.396Z,5.20
2023-03-12T23:54:05.922Z,5.30
2023-03-12T23:56:38.706Z,4.90
2023-03-12T23:59:08.341Z,4.90
